createdAt,value
2019-04-21T00:00:54.232Z,9.67
2019-04-21T00:03:23.568Z,9.40
2019-04-21T00:06:05.765Z,10.07
2019-04-21T00:08:53.513Z,9.43
2019-04-21T00:11:09.731Z,9.70
2019-04-21T00:13:29.504Z,9.47
2019-04-21T00:15:49.960Z,9.43
2019-04-21T00:18:23.432Z,9.20
2019-04-21T00:20:55.210Z,10.20
2019-04-21T00:23:39.317Z,10.83
2019-04-21T00:26:01.961Z,9.60
2019-04-21T00:28:43.650Z,9.40
2019-04-21T00:31:07.304Z,9.13
2019-04-21T00:33:25.857Z,10.00
2019-04-21T00:35:57.294Z,10.07
2019-04-21T00:38:40.385Z,10.57
2019-04-21T00:41:05.616Z,9.97
2019-04-21T00:43:35.303Z,10.30
2019-04-21T00:45:57.593Z,9.77
2019-04-21T00:48:36.442Z,10.03
2019-04-21T00:51:29.043Z,10.10
2019-04-21T00:53:51.494Z,9.83
2019-04-21T00:56:19.315Z,10.70
2019-04-21T00:58:47.855Z,10.00
2019-04-21T01:01:14.774Z,10.33
2019-04-21T01:03:46.245Z,9.70
2019-04-21T01:06:16.342Z,10.87
2019-04-21T01:08:43.676Z,10.40
2019-04-21T01:11:17.859Z,10.03
2019-04-21T01:13:45.389Z,10.23
2019-04-21T01:16:13.882Z,10.00
2019-04-21T01:18:47.906Z,9.73
2019-04-21T01:20:51.057Z,9.80
2019-04-21T01:23:19.233Z,10.37
2019-04-21T01:26:03.150Z,10.20
2019-04-21T01:28:35.964Z,11.03
2019-04-21T01:31:05.395Z,10.07
2019-04-21T01:33:39.716Z,11.63
2019-04-21T01:36:03.819Z,10.47
2019-04-21T01:38:40.099Z,10.83
2019-04-21T01:41:06.953Z,10.93
2019-04-21T01:43:27.742Z,10.67
2019-04-21T01:45:58.983Z,10.47
2019-04-21T01:48:27.202Z,10.87
2019-04-21T01:50:55.523Z,10.20
2019-04-21T01:53:58.001Z,10.13
2019-04-21T01:56:43.207Z,10.23
2019-04-21T01:58:57.585Z,10.13
2019-04-21T02:01:34.537Z,10.43
2019-04-21T02:04:06.882Z,10.80
2019-04-21T02:06:39.191Z,11.57
2019-04-21T02:09:05.156Z,10.77
2019-04-21T02:11:48.642Z,10.47
2019-04-21T02:14:11.330Z,10.20
2019-04-21T02:16:37.614Z,10.50
2019-04-21T02:18:59.114Z,10.03
2019-04-21T02:21:31.807Z,11.23
2019-04-21T02:24:11.769Z,11.37
2019-04-21T02:26:51.030Z,10.30
2019-04-21T02:29:09.614Z,10.90
2019-04-21T02:34:16.952Z,10.43
2019-04-21T02:41:55.297Z,10.83
2019-04-21T02:44:23.907Z,11.23
2019-04-21T02:46:42.051Z,10.77
2019-04-21T02:49:17.186Z,12.20
2019-04-21T02:56:43.824Z,10.67
2019-04-21T02:59:14.974Z,10.87
2019-04-21T03:02:04.494Z,11.30
2019-04-21T03:07:13.072Z,10.33
2019-04-21T03:09:43.195Z,11.07
2019-04-21T03:12:11.329Z,10.60
2019-04-21T03:14:50.447Z,11.40
2019-04-21T03:19:48.193Z,10.80
2019-04-21T03:22:12.336Z,10.53
2019-04-21T03:24:53.515Z,11.23
2019-04-21T03:37:16.634Z,11.10
2019-04-21T03:39:46.907Z,10.40
2019-04-21T03:42:19.714Z,10.73
2019-04-21T03:44:40.073Z,10.70
2019-04-21T03:49:54.527Z,10.80
2019-04-21T03:54:41.498Z,10.47
2019-04-21T03:57:18.932Z,11.00
2019-04-21T03:59:47.352Z,11.37
2019-04-21T04:02:47.229Z,10.77
2019-04-21T04:05:17.170Z,10.63
2019-04-21T04:10:11.956Z,10.03
2019-04-21T04:15:20.556Z,11.23
2019-04-21T04:17:41.090Z,11.23
2019-04-21T04:20:20.719Z,10.80
2019-04-21T04:22:52.615Z,10.97
2019-04-21T04:25:09.645Z,11.07
2019-04-21T04:27:59.875Z,11.93
2019-04-21T04:30:29.649Z,11.63
2019-04-21T04:35:26.379Z,11.17
2019-04-21T04:37:50.607Z,11.47
2019-04-21T04:40:28.128Z,12.27
2019-04-21T04:42:58.413Z,12.30
2019-04-21T04:45:32.441Z,11.17
2019-04-21T04:47:59.129Z,12.20
2019-04-21T04:50:34.014Z,11.17
2019-04-21T04:52:51.269Z,11.20
2019-04-21T04:55:25.758Z,12.50
2019-04-21T05:02:56.477Z,12.27
2019-04-21T05:05:26.696Z,11.60
2019-04-21T05:07:58.014Z,12.33
2019-04-21T05:10:36.788Z,11.87
2019-04-21T05:15:23.700Z,11.67
2019-04-21T05:20:24.022Z,11.87
2019-04-21T05:22:44.239Z,12.17
2019-04-21T05:25:03.733Z,12.20
2019-04-21T05:27:38.553Z,12.33
2019-04-21T05:30:22.101Z,12.17
2019-04-21T05:33:03.650Z,11.80
2019-04-21T05:35:49.275Z,12.03
2019-04-21T05:38:21.858Z,12.70
2019-04-21T05:40:50.761Z,12.77
2019-04-21T05:43:28.125Z,12.80
2019-04-21T05:46:01.127Z,13.37
2019-04-21T05:48:39.722Z,13.33
2019-04-21T05:51:03.606Z,12.70
2019-04-21T05:53:39.308Z,12.50
2019-04-21T05:56:09.996Z,12.90
2019-04-21T05:58:40.591Z,12.80
2019-04-21T06:03:46.172Z,12.63
2019-04-21T06:06:16.452Z,12.67
2019-04-21T06:08:42.310Z,12.67
2019-04-21T06:11:10.493Z,12.93
2019-04-21T06:13:48.448Z,12.40
2019-04-21T06:16:07.349Z,12.33
2019-04-21T06:18:43.379Z,12.87
2019-04-21T06:23:36.564Z,13.70
2019-04-21T06:26:21.596Z,13.50
2019-04-21T06:28:41.489Z,11.83
2019-04-21T06:33:36.258Z,12.90
2019-04-21T06:41:29.741Z,13.13
2019-04-21T06:43:56.345Z,12.73
2019-04-21T06:46:26.470Z,13.73
2019-04-21T06:48:58.374Z,13.00
2019-04-21T06:51:23.991Z,13.83
2019-04-21T06:56:27.152Z,13.10
2019-04-21T06:58:48.014Z,12.53
2019-04-21T07:01:28.649Z,13.17
2019-04-21T07:03:49.357Z,13.53
2019-04-21T07:06:18.371Z,13.50
2019-04-21T07:08:56.705Z,12.87
2019-04-21T07:11:09.705Z,13.77
2019-04-21T07:13:50.666Z,12.67
2019-04-21T07:16:19.409Z,13.53
2019-04-21T07:18:58.640Z,14.50
2019-04-21T07:21:14.387Z,13.73
2019-04-21T07:23:47.226Z,13.93
2019-04-21T07:26:11.752Z,13.13
2019-04-21T07:28:49.887Z,13.50
2019-04-21T07:36:11.481Z,14.10
2019-04-21T07:38:41.156Z,13.27
2019-04-21T07:41:02.298Z,14.20
2019-04-21T07:43:32.959Z,13.67
2019-04-21T07:46:03.607Z,14.33
2019-04-21T07:48:43.236Z,14.27
2019-04-21T07:51:47.960Z,14.87
2019-04-21T07:54:18.419Z,14.13
2019-04-21T07:56:28.799Z,14.80
2019-04-21T07:59:12.754Z,13.97
2019-04-21T08:01:45.309Z,13.60
2019-04-21T08:04:33.161Z,14.17
2019-04-21T08:06:46.541Z,14.70
2019-04-21T08:09:18.250Z,13.87
2019-04-21T08:11:45.702Z,13.90
2019-04-21T08:14:17.507Z,14.43
2019-04-21T08:16:53.408Z,14.83
2019-04-21T08:19:33.807Z,14.50
2019-04-21T08:22:05.447Z,14.67
2019-04-21T08:24:36.351Z,15.27
2019-04-21T08:27:04.938Z,13.93
2019-04-21T08:29:33.468Z,14.97
2019-04-21T08:32:11.032Z,15.47
2019-04-21T08:34:34.702Z,13.93
2019-04-21T08:36:58.656Z,14.13
2019-04-21T08:39:31.299Z,15.33
2019-04-21T08:41:57.172Z,14.83
2019-04-21T08:44:36.043Z,15.43
2019-04-21T08:46:59.129Z,14.80
2019-04-21T08:49:29.355Z,14.90
2019-04-21T08:52:00.744Z,15.67
2019-04-21T08:54:28.113Z,15.00
2019-04-21T08:57:28.910Z,15.13
2019-04-21T09:00:19.829Z,14.00
2019-04-21T09:03:00.270Z,14.90
2019-04-21T09:05:23.414Z,15.23
2019-04-21T09:08:00.397Z,14.37
2019-04-21T09:10:28.128Z,14.47
2019-04-21T09:13:00.141Z,13.77
2019-04-21T09:15:28.036Z,14.80
2019-04-21T09:17:48.964Z,14.97
2019-04-21T09:20:38.750Z,14.90
2019-04-21T09:22:54.305Z,15.43
2019-04-21T09:25:38.352Z,14.93
2019-04-21T09:27:55.033Z,14.10
2019-04-21T09:30:07.395Z,14.37
2019-04-21T09:32:37.063Z,14.67
2019-04-21T09:35:10.273Z,14.90
2019-04-21T09:37:46.847Z,15.13
2019-04-21T09:40:06.652Z,14.77
2019-04-21T09:42:41.204Z,15.13
2019-04-21T09:45:06.222Z,14.93
2019-04-21T09:47:40.133Z,15.00
2019-04-21T09:50:04.896Z,15.03
2019-04-21T09:52:44.276Z,15.77
2019-04-21T09:55:09.400Z,14.70
2019-04-21T09:57:41.307Z,14.27
2019-04-21T10:00:10.024Z,15.13
2019-04-21T10:02:41.025Z,15.23
2019-04-21T10:05:02.449Z,14.20
2019-04-21T10:07:36.507Z,14.53
2019-04-21T10:10:00.224Z,14.53
2019-04-21T10:12:28.717Z,14.37
2019-04-21T10:14:57.379Z,15.63
2019-04-21T10:17:29.578Z,15.13
2019-04-21T10:19:58.595Z,14.73
2019-04-21T10:22:26.697Z,15.67
2019-04-21T10:24:54.455Z,15.40
2019-04-21T10:27:23.120Z,15.30
2019-04-21T10:29:52.197Z,17.00
2019-04-21T10:32:23.178Z,15.73
2019-04-21T10:34:49.620Z,14.97
2019-04-21T10:37:17.251Z,14.50
2019-04-21T10:39:45.354Z,15.47
2019-04-21T10:42:13.159Z,15.37
2019-04-21T10:44:41.040Z,14.93
2019-04-21T10:47:09.392Z,15.27
2019-04-21T10:49:36.981Z,13.50
2019-04-21T10:52:10.691Z,13.93
2019-04-21T10:55:02.157Z,14.57
2019-04-21T10:57:16.723Z,12.90
2019-04-21T10:59:47.951Z,14.07
2019-04-21T11:02:19.557Z,13.83
2019-04-21T11:05:06.903Z,13.57
2019-04-21T11:08:01.238Z,14.53
2019-04-21T11:10:20.352Z,14.27
2019-04-21T11:12:47.940Z,12.87
2019-04-21T11:15:16.982Z,14.30
2019-04-21T11:17:45.564Z,13.93
2019-04-21T11:20:15.045Z,14.67
2019-04-21T11:22:43.818Z,14.47
2019-04-21T11:25:12.892Z,13.87
2019-04-21T11:27:40.824Z,13.00
2019-04-21T11:30:09.550Z,12.57
2019-04-21T11:32:37.256Z,11.97
2019-04-21T11:35:05.301Z,12.53
2019-04-21T11:37:34.627Z,12.73
2019-04-21T11:40:08.616Z,13.30
2019-04-21T11:42:35.604Z,12.47
2019-04-21T11:45:04.212Z,12.90
2019-04-21T11:47:38.927Z,11.47
2019-04-21T11:50:07.384Z,12.73
2019-04-21T11:52:35.049Z,11.97
2019-04-21T11:55:02.840Z,12.00
2019-04-21T11:57:38.345Z,12.97
2019-04-21T12:00:03.890Z,10.80
2019-04-21T12:02:31.523Z,10.73
2019-04-21T12:04:59.272Z,10.10
2019-04-21T12:07:33.409Z,11.63
2019-04-21T12:10:03.770Z,12.00
2019-04-21T12:12:31.459Z,12.53
2019-04-21T12:14:59.918Z,11.50
2019-04-21T12:17:31.990Z,11.40
2019-04-21T12:20:00.959Z,10.10
2019-04-21T12:22:32.483Z,10.73
2019-04-21T12:24:58.264Z,10.07
2019-04-21T12:27:33.978Z,9.50
2019-04-21T12:30:02.117Z,10.63
2019-04-21T12:32:48.608Z,11.30
2019-04-21T12:35:17.623Z,11.53
2019-04-21T12:37:46.884Z,10.50
2019-04-21T12:40:14.846Z,10.53
2019-04-21T12:42:43.617Z,8.47
2019-04-21T12:45:13.128Z,9.20
2019-04-21T12:47:41.917Z,10.13
2019-04-21T12:50:12.771Z,9.90
2019-04-21T12:52:41.808Z,10.13
2019-04-21T12:55:09.606Z,10.20
2019-04-21T12:57:37.306Z,9.63
2019-04-21T13:00:08.911Z,9.40
2019-04-21T13:02:37.839Z,9.07
2019-04-21T13:05:05.573Z,10.80
2019-04-21T13:07:33.515Z,10.23
2019-04-21T13:10:02.367Z,10.63
2019-04-21T13:12:31.109Z,10.00
2019-04-21T13:14:59.564Z,9.47
2019-04-21T13:17:28.101Z,9.50
2019-04-21T13:19:56.903Z,8.67
2019-04-21T13:22:25.862Z,9.40
2019-04-21T13:24:56.814Z,8.73
2019-04-21T13:27:26.958Z,8.53
2019-04-21T13:29:54.606Z,8.40
2019-04-21T13:32:22.178Z,8.37
2019-04-21T13:34:50.919Z,7.80
2019-04-21T13:37:19.484Z,7.90
2019-04-21T13:40:20.717Z,8.43
2019-04-21T13:42:39.413Z,9.17
2019-04-21T13:45:02.599Z,9.10
2019-04-21T13:47:30.597Z,9.90
2019-04-21T13:49:59.851Z,9.10
2019-04-21T13:52:28.912Z,8.30
2019-04-21T13:54:57.833Z,9.30
2019-04-21T13:57:26.320Z,8.40
2019-04-21T13:59:55.095Z,10.00
2019-04-21T14:02:22.751Z,9.63
2019-04-21T14:04:51.663Z,10.17
2019-04-21T14:07:20.489Z,9.10
2019-04-21T14:09:57.033Z,8.10
2019-04-21T14:12:17.511Z,9.27
2019-04-21T14:14:46.322Z,9.07
2019-04-21T14:17:15.061Z,8.43
2019-04-21T14:19:43.537Z,8.30
2019-04-21T14:22:13.962Z,8.40
2019-04-21T14:24:41.734Z,7.57
2019-04-21T14:27:12.137Z,7.27
2019-04-21T14:29:41.629Z,7.30
2019-04-21T14:32:10.584Z,6.67
2019-04-21T14:34:39.539Z,7.30
2019-04-21T14:37:08.688Z,6.67
2019-04-21T14:39:48.536Z,6.40
2019-04-21T14:42:06.434Z,6.67
2019-04-21T14:44:34.278Z,5.93
2019-04-21T14:47:27.386Z,6.80
2019-04-21T14:50:24.453Z,6.60
2019-04-21T14:53:27.624Z,6.93
2019-04-21T14:55:55.519Z,6.33
2019-04-21T14:58:27.428Z,6.20
2019-04-21T15:01:02.108Z,5.97
2019-04-21T15:03:30.055Z,6.40
2019-04-21T15:05:57.909Z,6.20
2019-04-21T15:08:26.933Z,6.17
2019-04-21T15:10:54.942Z,5.50
2019-04-21T15:13:23.716Z,5.87
2019-04-21T15:15:52.195Z,6.90
2019-04-21T15:18:21.038Z,6.43
2019-04-21T15:20:50.478Z,7.60
2019-04-21T15:23:18.237Z,6.60
2019-04-21T15:25:50.286Z,5.83
2019-04-21T15:28:17.965Z,6.30
2019-04-21T15:30:46.956Z,5.87
2019-04-21T15:33:16.178Z,6.03
2019-04-21T15:35:44.952Z,6.13
2019-04-21T15:38:14.007Z,6.43
2019-04-21T15:40:49.728Z,5.70
2019-04-21T15:43:14.749Z,6.23
2019-04-21T15:45:42.586Z,6.33
2019-04-21T15:48:10.183Z,6.00
2019-04-21T15:50:37.895Z,5.90
2019-04-21T15:53:07.734Z,5.53
2019-04-21T15:55:50.777Z,6.00
2019-04-21T15:58:38.886Z,6.03
2019-04-21T16:01:41.366Z,5.90
2019-04-21T16:04:10.552Z,6.30
2019-04-21T16:06:39.395Z,5.87
2019-04-21T16:09:14.222Z,5.73
2019-04-21T16:11:39.771Z,5.30
2019-04-21T16:14:08.043Z,5.67
2019-04-21T16:16:36.180Z,5.53
2019-04-21T16:19:04.047Z,5.63
2019-04-21T16:21:41.000Z,6.00
2019-04-21T16:24:27.834Z,5.90
2019-04-21T16:26:56.478Z,6.07
2019-04-21T16:29:25.005Z,5.90
2019-04-21T16:31:53.275Z,5.80
2019-04-21T16:34:36.092Z,6.40
2019-04-21T16:36:53.922Z,5.33
2019-04-21T16:39:21.612Z,5.40
2019-04-21T16:41:55.081Z,5.40
2019-04-21T16:44:25.194Z,5.50
2019-04-21T16:46:53.683Z,5.30
2019-04-21T16:49:22.072Z,6.10
2019-04-21T16:52:10.025Z,5.77
2019-04-21T16:54:38.161Z,5.20
2019-04-21T16:57:15.598Z,5.73
2019-04-21T16:59:48.620Z,6.00
2019-04-21T17:02:16.493Z,5.90
2019-04-21T17:04:44.388Z,5.83
2019-04-21T17:07:13.384Z,5.77
2019-04-21T17:09:41.496Z,5.80
2019-04-21T17:12:13.795Z,5.20
2019-04-21T17:14:53.672Z,5.73
2019-04-21T17:17:32.408Z,5.73
2019-04-21T17:19:43.580Z,5.63
2019-04-21T17:22:08.020Z,5.37
2019-04-21T17:24:35.543Z,5.60
2019-04-21T17:27:03.086Z,5.40
2019-04-21T17:29:30.751Z,5.47
2019-04-21T17:31:59.710Z,4.73
2019-04-21T17:34:29.828Z,5.27
2019-04-21T17:36:57.255Z,5.17
2019-04-21T17:39:27.018Z,5.57
2019-04-21T17:42:11.724Z,5.33
2019-04-21T17:44:32.976Z,5.00
2019-04-21T17:47:13.288Z,5.10
2019-04-21T17:49:34.831Z,5.00
2019-04-21T17:52:37.958Z,5.30
2019-04-21T17:55:22.972Z,5.23
2019-04-21T17:58:08.360Z,5.13
2019-04-21T18:01:03.602Z,5.27
2019-04-21T18:03:24.254Z,5.30
2019-04-21T18:05:39.317Z,5.20
2019-04-21T18:08:07.101Z,5.17
2019-04-21T18:10:35.697Z,4.97
2019-04-21T18:12:57.309Z,5.10
2019-04-21T18:15:42.422Z,5.20
2019-04-21T18:18:05.200Z,5.10
2019-04-21T18:20:39.825Z,5.00
2019-04-21T18:23:39.755Z,5.03
2019-04-21T18:26:20.942Z,4.50
2019-04-21T18:28:56.942Z,5.07
2019-04-21T18:31:27.044Z,4.90
2019-04-21T18:34:18.226Z,5.00
2019-04-21T18:36:51.651Z,5.00
2019-04-21T18:39:34.374Z,4.67
2019-04-21T18:42:18.940Z,4.83
2019-04-21T18:45:12.805Z,4.70
2019-04-21T18:47:50.036Z,4.67
2019-04-21T18:50:21.866Z,4.70
2019-04-21T18:53:04.821Z,5.10
2019-04-21T18:55:31.993Z,4.80
2019-04-21T18:57:55.045Z,4.77
2019-04-21T19:00:30.667Z,4.20
2019-04-21T19:02:56.033Z,4.87
2019-04-21T19:05:25.025Z,5.00
2019-04-21T19:08:11.870Z,4.50
2019-04-21T19:10:44.746Z,4.80
2019-04-21T19:13:29.133Z,5.07
2019-04-21T19:15:48.484Z,4.80
2019-04-21T19:20:34.865Z,4.67
2019-04-21T19:23:04.559Z,5.00
2019-04-21T19:25:35.918Z,4.37
2019-04-21T19:27:59.031Z,4.40
2019-04-21T19:30:39.893Z,4.30
2019-04-21T19:33:10.192Z,4.73
2019-04-21T19:35:21.397Z,4.70
2019-04-21T19:37:57.291Z,4.67
2019-04-21T19:40:34.036Z,4.87
2019-04-21T19:42:57.907Z,4.47
2019-04-21T19:45:34.195Z,4.57
2019-04-21T19:48:06.771Z,4.90
2019-04-21T19:50:35.155Z,4.60
2019-04-21T19:53:02.951Z,4.40
2019-04-21T19:55:24.383Z,4.53
2019-04-21T19:57:52.691Z,4.40
2019-04-21T20:00:22.263Z,4.40
2019-04-21T20:02:50.408Z,4.20
2019-04-21T20:05:25.583Z,4.77
2019-04-21T20:08:03.630Z,5.10
2019-04-21T20:10:44.406Z,4.47
2019-04-21T20:13:07.268Z,4.67
2019-04-21T20:15:42.067Z,4.77
2019-04-21T20:17:58.831Z,4.70
2019-04-21T20:20:17.156Z,4.80
2019-04-21T20:22:48.542Z,4.67
2019-04-21T20:25:19.074Z,5.13
2019-04-21T20:27:55.434Z,4.90
2019-04-21T20:30:37.619Z,5.20
2019-04-21T20:33:19.716Z,4.80
2019-04-21T20:35:46.906Z,5.17
2019-04-21T20:38:05.176Z,5.10
2019-04-21T20:40:27.211Z,5.37
2019-04-21T20:43:08.241Z,5.50
2019-04-21T20:47:50.489Z,5.33
2019-04-21T20:50:32.623Z,5.63
2019-04-21T20:53:06.020Z,5.77
2019-04-21T20:55:22.481Z,5.73
2019-04-21T20:57:59.625Z,5.77
2019-04-21T21:00:32.719Z,5.93
2019-04-21T21:03:07.094Z,6.00
2019-04-21T21:05:27.369Z,6.50
2019-04-21T21:08:03.638Z,7.10
2019-04-21T21:10:34.700Z,7.43
2019-04-21T21:13:06.203Z,7.40
2019-04-21T21:15:29.141Z,7.63
2019-04-21T21:18:06.211Z,6.90
2019-04-21T21:20:31.069Z,8.00
2019-04-21T21:22:57.463Z,7.93
2019-04-21T21:25:33.808Z,8.60
2019-04-21T21:27:51.749Z,8.47
2019-04-21T21:30:24.318Z,8.20
2019-04-21T21:32:56.170Z,9.03
2019-04-21T21:35:21.449Z,9.00
2019-04-21T21:37:56.694Z,9.10
2019-04-21T21:40:28.693Z,8.93
2019-04-21T21:42:40.701Z,9.50
2019-04-21T21:45:12.663Z,9.57
2019-04-21T21:47:53.605Z,9.77
2019-04-21T21:50:16.148Z,9.97
2019-04-21T21:52:47.898Z,9.10
2019-04-21T21:55:05.692Z,9.50
2019-04-21T21:57:40.508Z,9.33
2019-04-21T22:00:08.607Z,9.80
2019-04-21T22:02:42.107Z,9.60
2019-04-21T22:05:09.642Z,9.73
2019-04-21T22:07:36.647Z,9.60
2019-04-21T22:10:04.405Z,9.73
2019-04-21T22:12:40.396Z,9.00
2019-04-21T22:15:10.071Z,9.20
2019-04-21T22:17:44.638Z,9.50
2019-04-21T22:20:22.815Z,9.30
2019-04-21T22:22:38.940Z,9.70
2019-04-21T22:25:09.301Z,9.37
2019-04-21T22:27:28.144Z,9.30
2019-04-21T22:30:00.849Z,9.20
2019-04-21T22:32:28.707Z,8.93
2019-04-21T22:34:59.920Z,9.50
2019-04-21T22:37:39.248Z,9.43
2019-04-21T22:40:04.700Z,9.57
2019-04-21T22:42:28.738Z,9.57
2019-04-21T22:44:52.476Z,9.50
2019-04-21T22:47:25.113Z,10.10
2019-04-21T22:49:50.515Z,9.53
2019-04-21T22:52:21.018Z,9.03
2019-04-21T22:54:49.290Z,9.67
2019-04-21T22:57:22.012Z,9.93
2019-04-21T22:59:53.898Z,9.93
2019-04-21T23:02:22.618Z,9.63
2019-04-21T23:04:50.674Z,10.03
2019-04-21T23:07:17.275Z,9.60
2019-04-21T23:09:45.479Z,9.90
2019-04-21T23:12:20.470Z,9.53
2019-04-21T23:14:49.398Z,10.10
2019-04-21T23:17:40.595Z,9.90
2019-04-21T23:20:03.243Z,9.50
2019-04-21T23:22:27.964Z,9.23
2019-04-21T23:25:18.426Z,9.10
2019-04-21T23:27:46.885Z,9.60
2019-04-21T23:30:26.442Z,9.43
2019-04-21T23:32:41.026Z,9.80
2019-04-21T23:35:01.755Z,9.30
2019-04-21T23:37:28.984Z,9.50
2019-04-21T23:40:04.429Z,9.63
2019-04-21T23:42:31.888Z,9.87
2019-04-21T23:44:58.029Z,9.67
2019-04-21T23:47:35.587Z,9.47
2019-04-21T23:50:00.141Z,9.07
2019-04-21T23:52:23.723Z,9.97
2019-04-21T23:54:51.614Z,9.77
2019-04-21T23:57:28.549Z,9.50
2019-04-21T23:59:53.463Z,10.33
